createdAt,value
2023-02-28T00:01:11.233Z,46.12
2023-02-28T00:03:40.394Z,46.13
2023-02-28T00:06:10.369Z,46.11
2023-02-28T00:08:38.421Z,45.90
2023-02-28T00:11:08.428Z,45.54
2023-02-28T00:13:39.095Z,45.56
2023-02-28T00:16:09.369Z,45.89
2023-02-28T00:18:37.260Z,46.04
2023-02-28T00:21:07.183Z,46.30
2023-02-28T00:23:35.079Z,46.44
2023-02-28T00:26:02.920Z,46.39
2023-02-28T00:28:30.850Z,46.36
2023-02-28T00:31:00.876Z,46.37
2023-02-28T00:33:28.812Z,46.66
2023-02-28T00:36:05.059Z,46.76
2023-02-28T00:38:34.450Z,46.68
2023-02-28T00:41:05.432Z,46.76
2023-02-28T00:43:34.427Z,46.86
2023-02-28T00:46:02.410Z,46.97
2023-02-28T00:48:30.470Z,46.96
2023-02-28T00:50:58.121Z,47.29
2023-02-28T00:53:25.798Z,47.37
2023-02-28T00:55:54.841Z,47.48
2023-02-28T00:58:22.605Z,47.62
2023-02-28T01:00:50.581Z,47.71
2023-02-28T01:03:18.900Z,48.00
2023-02-28T01:05:47.545Z,47.59
2023-02-28T01:08:15.713Z,47.95
2023-02-28T01:10:43.987Z,48.32
2023-02-28T01:13:13.230Z,48.19
2023-02-28T01:15:43.992Z,48.79
2023-02-28T01:18:11.723Z,49.02
2023-02-28T01:20:39.390Z,49.02
2023-02-28T01:23:07.391Z,49.00
2023-02-28T01:25:36.367Z,49.12
2023-02-28T01:28:04.110Z,49.19
2023-02-28T01:30:33.815Z,49.26
2023-02-28T01:33:01.825Z,48.96
2023-02-28T01:35:29.504Z,49.19
2023-02-28T01:38:02.847Z,49.16
2023-02-28T01:40:34.590Z,49.38
2023-02-28T01:43:02.261Z,49.42
2023-02-28T01:45:31.821Z,49.61
2023-02-28T01:48:04.514Z,49.98
2023-02-28T01:50:36.457Z,49.64
2023-02-28T01:53:07.447Z,49.76
2023-02-28T01:55:36.496Z,49.75
2023-02-28T01:58:08.201Z,49.85
2023-02-28T02:00:35.885Z,49.75
2023-02-28T02:03:15.620Z,49.76
2023-02-28T02:05:48.627Z,49.83
2023-02-28T02:08:21.992Z,49.91
2023-02-28T02:10:54.354Z,49.96
2023-02-28T02:13:41.704Z,49.76
2023-02-28T02:16:20.318Z,50.13
2023-02-28T02:18:54.348Z,49.84
2023-02-28T02:21:57.273Z,49.80
2023-02-28T02:25:00.862Z,49.53
2023-02-28T02:27:40.118Z,49.65
2023-02-28T02:30:24.649Z,49.32
2023-02-28T02:33:29.700Z,49.43
2023-02-28T02:36:05.054Z,49.83
2023-02-28T02:38:37.684Z,49.92
2023-02-28T02:41:16.327Z,50.47
2023-02-28T02:43:50.528Z,51.09
2023-02-28T02:46:21.965Z,51.56
2023-02-28T02:48:52.013Z,51.35
2023-02-28T02:51:25.073Z,51.06
2023-02-28T02:53:56.858Z,50.69
2023-02-28T02:56:29.236Z,50.98
2023-02-28T02:59:01.093Z,51.14
2023-02-28T03:01:31.700Z,51.15
2023-02-28T03:04:03.469Z,51.60
2023-02-28T03:06:32.581Z,51.29
2023-02-28T03:09:02.275Z,50.91
2023-02-28T03:11:31.430Z,51.04
2023-02-28T03:14:17.586Z,50.55
2023-02-28T03:16:59.801Z,50.87
2023-02-28T03:19:44.046Z,50.32
2023-02-28T03:22:31.582Z,50.29
2023-02-28T03:25:08.818Z,50.07
2023-02-28T03:27:43.334Z,50.05
2023-02-28T03:30:18.045Z,50.18
2023-02-28T03:32:54.861Z,49.91
2023-02-28T03:35:25.710Z,50.05
2023-02-28T03:38:00.712Z,50.15
2023-02-28T03:40:33.685Z,50.20
2023-02-28T03:43:05.567Z,50.30
2023-02-28T03:45:38.698Z,50.15
2023-02-28T03:48:13.304Z,49.84
2023-02-28T03:50:43.252Z,50.43
2023-02-28T03:53:16.324Z,50.42
2023-02-28T03:55:47.085Z,50.14
2023-02-28T03:58:21.941Z,50.20
2023-02-28T04:00:54.942Z,49.80
2023-02-28T04:03:22.630Z,50.29
2023-02-28T04:05:53.649Z,50.30
2023-02-28T04:08:24.079Z,50.25
2023-02-28T04:10:56.188Z,50.81
2023-02-28T04:13:23.750Z,51.37
2023-02-28T04:15:51.424Z,51.58
2023-02-28T04:18:19.164Z,51.88
2023-02-28T04:20:46.885Z,51.91
2023-02-28T04:23:16.021Z,51.72
2023-02-28T04:25:45.120Z,51.87
2023-02-28T04:28:12.856Z,51.77
2023-02-28T04:30:41.228Z,52.06
2023-02-28T04:33:08.908Z,51.89
2023-02-28T04:35:36.665Z,51.97
2023-02-28T04:38:04.505Z,52.85
2023-02-28T04:40:32.094Z,52.58
2023-02-28T04:43:01.070Z,52.50
2023-02-28T04:45:31.028Z,53.60
2023-02-28T04:47:58.678Z,53.91
2023-02-28T04:50:26.432Z,53.30
2023-02-28T04:52:54.127Z,52.91
2023-02-28T04:55:21.803Z,52.71
2023-02-28T04:57:49.532Z,52.92
2023-02-28T05:00:19.438Z,53.35
2023-02-28T05:02:47.054Z,53.22
2023-02-28T05:05:19.200Z,53.21
2023-02-28T05:07:47.242Z,53.28
2023-02-28T05:10:14.994Z,53.29
2023-02-28T05:12:42.724Z,53.30
2023-02-28T05:15:15.010Z,53.43
2023-02-28T05:17:44.570Z,53.43
2023-02-28T05:20:15.729Z,53.32
2023-02-28T05:22:44.600Z,53.56
2023-02-28T05:25:15.952Z,53.40
2023-02-28T05:27:43.756Z,53.28
2023-02-28T05:30:12.743Z,53.66
2023-02-28T05:32:43.656Z,54.05
2023-02-28T05:35:13.569Z,54.04
2023-02-28T05:37:41.392Z,54.42
2023-02-28T05:40:11.371Z,53.96
2023-02-28T05:42:39.190Z,54.01
2023-02-28T05:45:08.445Z,54.03
2023-02-28T05:47:36.905Z,54.18
2023-02-28T05:50:04.726Z,53.77
2023-02-28T05:52:33.756Z,53.77
2023-02-28T05:55:01.382Z,53.67
2023-02-28T05:57:29.114Z,54.36
2023-02-28T05:59:56.804Z,54.16
2023-02-28T06:02:24.527Z,53.95
2023-02-28T06:04:52.173Z,53.99
2023-02-28T06:07:19.841Z,54.19
2023-02-28T06:09:49.196Z,53.94
2023-02-28T06:12:16.866Z,54.07
2023-02-28T06:14:44.497Z,54.13
2023-02-28T06:17:12.223Z,54.16
2023-02-28T06:19:42.257Z,54.00
2023-02-28T06:22:09.924Z,53.81
2023-02-28T06:24:37.672Z,53.75
2023-02-28T06:27:07.062Z,53.82
2023-02-28T06:29:35.834Z,53.92
2023-02-28T06:32:04.551Z,53.96
2023-02-28T06:34:32.253Z,53.77
2023-02-28T06:37:03.026Z,53.49
2023-02-28T06:39:30.738Z,53.55
2023-02-28T06:41:58.632Z,53.51
2023-02-28T06:44:27.720Z,53.48
2023-02-28T06:46:55.372Z,53.58
2023-02-28T06:49:23.059Z,53.53
2023-02-28T06:51:50.866Z,53.40
2023-02-28T06:54:18.551Z,53.40
2023-02-28T06:56:46.286Z,53.50
2023-02-28T06:59:13.961Z,53.79
2023-02-28T07:01:43.207Z,53.87
2023-02-28T07:04:11.341Z,53.98
2023-02-28T07:06:39.079Z,53.64
2023-02-28T07:09:07.227Z,53.56
2023-02-28T07:11:35.071Z,53.51
2023-02-28T07:14:02.851Z,53.95
2023-02-28T07:16:30.482Z,53.82
2023-02-28T07:18:59.580Z,53.42
2023-02-28T07:21:27.442Z,53.01
2023-02-28T07:23:55.305Z,52.96
2023-02-28T07:26:22.963Z,53.11
2023-02-28T07:28:52.618Z,52.93
2023-02-28T07:31:20.677Z,52.54
2023-02-28T07:33:48.637Z,52.48
2023-02-28T07:36:20.501Z,52.23
2023-02-28T07:38:51.113Z,51.79
2023-02-28T07:41:19.780Z,51.54
2023-02-28T07:43:48.037Z,51.48
2023-02-28T07:46:18.148Z,51.55
2023-02-28T07:48:46.721Z,51.30
2023-02-28T07:51:14.521Z,50.81
2023-02-28T07:53:43.687Z,50.49
2023-02-28T07:56:12.174Z,50.01
2023-02-28T07:58:39.824Z,49.61
2023-02-28T08:01:08.780Z,49.54
2023-02-28T08:03:37.316Z,48.93
2023-02-28T08:06:05.732Z,48.59
2023-02-28T08:08:33.821Z,48.27
2023-02-28T08:11:04.885Z,47.57
2023-02-28T08:13:32.935Z,47.46
2023-02-28T08:16:03.156Z,47.20
2023-02-28T08:18:30.829Z,46.93
2023-02-28T08:20:58.625Z,46.59
2023-02-28T08:23:26.477Z,46.08
2023-02-28T08:25:58.017Z,45.66
2023-02-28T08:28:27.704Z,45.22
2023-02-28T08:30:55.733Z,45.45
2023-02-28T08:33:23.778Z,45.64
2023-02-28T08:35:54.768Z,45.71
2023-02-28T08:38:22.917Z,46.06
2023-02-28T08:40:50.583Z,45.67
2023-02-28T08:43:18.362Z,45.57
2023-02-28T08:45:47.411Z,45.77
2023-02-28T08:48:16.738Z,45.53
2023-02-28T08:50:50.395Z,45.17
2023-02-28T08:53:23.551Z,44.52
2023-02-28T08:55:58.485Z,44.17
2023-02-28T08:58:26.402Z,43.36
2023-02-28T09:00:56.351Z,42.92
2023-02-28T09:03:25.399Z,42.21
2023-02-28T09:05:57.853Z,39.93
2023-02-28T09:08:26.204Z,36.13
2023-02-28T09:10:55.270Z,31.84
2023-02-28T09:13:22.976Z,28.57
2023-02-28T09:15:50.900Z,26.62
2023-02-28T09:18:19.988Z,24.58
2023-02-28T09:20:47.898Z,23.62
2023-02-28T09:23:15.613Z,21.74
2023-02-28T09:25:48.178Z,21.33
2023-02-28T09:28:17.782Z,20.44
2023-02-28T09:30:47.874Z,20.95
2023-02-28T09:33:16.401Z,22.56
2023-02-28T09:35:45.438Z,23.11
2023-02-28T09:38:13.938Z,23.63
2023-02-28T09:40:49.348Z,22.67
2023-02-28T09:43:18.993Z,23.02
2023-02-28T09:45:53.796Z,23.92
2023-02-28T09:48:25.345Z,24.62
2023-02-28T09:51:01.781Z,24.18
2023-02-28T09:53:34.867Z,24.49
2023-02-28T09:56:07.181Z,24.94
2023-02-28T09:58:43.457Z,24.65
2023-02-28T10:01:21.027Z,23.70
2023-02-28T10:03:54.135Z,23.14
2023-02-28T10:06:28.315Z,21.36
2023-02-28T10:09:03.431Z,19.30
2023-02-28T10:11:34.503Z,18.61
2023-02-28T10:14:06.917Z,19.36
2023-02-28T10:16:39.556Z,19.56
2023-02-28T10:19:15.724Z,19.00
2023-02-28T10:21:49.867Z,19.26
2023-02-28T10:24:25.479Z,19.40
2023-02-28T10:26:58.065Z,20.16
2023-02-28T10:29:25.801Z,19.56
2023-02-28T10:31:53.481Z,18.59
2023-02-28T10:34:21.153Z,17.69
2023-02-28T10:36:51.926Z,18.08
2023-02-28T10:39:40.767Z,17.88
2023-02-28T10:42:23.080Z,17.11
2023-02-28T10:44:51.313Z,17.16
2023-02-28T10:47:21.499Z,16.39
2023-02-28T10:49:50.096Z,15.33
2023-02-28T10:52:35.479Z,14.73
2023-02-28T10:55:21.765Z,14.37
2023-02-28T10:57:49.794Z,16.01
2023-02-28T11:00:21.758Z,17.18
2023-02-28T11:02:50.223Z,17.41
2023-02-28T11:05:30.350Z,17.88
2023-02-28T11:08:06.997Z,19.23
2023-02-28T11:10:35.824Z,21.21
2023-02-28T11:13:04.592Z,22.08
2023-02-28T11:15:34.872Z,23.50
2023-02-28T11:18:05.013Z,23.57
2023-02-28T11:20:36.280Z,23.44
2023-02-28T11:23:06.856Z,23.18
2023-02-28T11:25:36.856Z,22.67
2023-02-28T11:28:07.503Z,21.83
2023-02-28T11:30:37.955Z,21.60
2023-02-28T11:33:24.760Z,21.21
2023-02-28T11:35:54.664Z,22.51
2023-02-28T11:38:23.782Z,22.78
2023-02-28T11:41:07.698Z,22.44
2023-02-28T11:43:54.032Z,22.22
2023-02-28T11:46:32.561Z,22.52
2023-02-28T11:49:07.774Z,21.30
2023-02-28T11:51:37.587Z,20.47
2023-02-28T11:54:29.834Z,20.25
2023-02-28T11:57:01.185Z,19.33
2023-02-28T11:59:50.844Z,18.15
2023-02-28T12:02:29.271Z,16.28
2023-02-28T12:05:26.443Z,15.45
2023-02-28T12:08:08.204Z,15.99
2023-02-28T12:10:46.418Z,16.81
2023-02-28T12:13:23.126Z,18.50
2023-02-28T12:16:26.771Z,19.13
2023-02-28T12:19:16.702Z,20.21
2023-02-28T12:21:57.989Z,19.97
2023-02-28T12:24:52.201Z,19.31
2023-02-28T12:27:27.642Z,20.17
2023-02-28T12:30:00.908Z,22.11
2023-02-28T12:32:34.252Z,22.60
2023-02-28T12:35:06.910Z,20.15
2023-02-28T12:37:41.119Z,20.27
2023-02-28T12:40:14.708Z,20.00
2023-02-28T12:42:48.190Z,20.64
2023-02-28T12:45:21.853Z,22.07
2023-02-28T12:47:55.021Z,24.22
2023-02-28T12:50:24.914Z,24.22
2023-02-28T12:52:57.718Z,24.07
2023-02-28T12:55:34.138Z,22.81
2023-02-28T12:58:13.239Z,21.52
2023-02-28T13:00:54.156Z,21.89
2023-02-28T13:04:00.126Z,21.87
2023-02-28T13:06:56.711Z,22.18
2023-02-28T13:09:24.595Z,23.20
2023-02-28T13:11:53.679Z,22.73
2023-02-28T13:14:31.376Z,23.08
2023-02-28T13:17:11.490Z,23.27
2023-02-28T13:19:41.423Z,24.50
2023-02-28T13:22:19.554Z,25.08
2023-02-28T13:24:49.947Z,25.02
2023-02-28T13:27:40.130Z,25.33
2023-02-28T13:30:45.469Z,26.58
2023-02-28T13:33:31.150Z,26.85
2023-02-28T13:36:24.839Z,27.58
2023-02-28T13:38:54.273Z,27.78
2023-02-28T13:41:47.266Z,27.99
2023-02-28T13:44:17.201Z,28.82
2023-02-28T13:47:30.652Z,29.09
2023-02-28T13:50:22.873Z,29.14
2023-02-28T13:53:01.794Z,29.97
2023-02-28T13:55:33.624Z,30.25
2023-02-28T13:58:16.064Z,30.46
2023-02-28T14:01:08.663Z,30.14
2023-02-28T14:04:00.173Z,30.68
2023-02-28T14:06:33.236Z,30.58
2023-02-28T14:09:04.300Z,30.90
2023-02-28T14:11:34.590Z,31.13
2023-02-28T14:14:03.381Z,31.41
2023-02-28T14:16:41.974Z,31.57
2023-02-28T14:19:16.212Z,32.42
2023-02-28T14:22:02.052Z,32.35
2023-02-28T14:24:56.881Z,32.61
2023-02-28T14:27:40.086Z,32.99
2023-02-28T14:30:45.360Z,33.14
2023-02-28T14:33:28.693Z,33.18
2023-02-28T14:36:05.469Z,33.08
2023-02-28T14:38:41.956Z,32.24
2023-02-28T14:41:19.410Z,32.02
2023-02-28T14:43:52.500Z,32.40
2023-02-28T14:46:21.553Z,32.79
2023-02-28T14:48:51.134Z,33.15
2023-02-28T14:51:24.737Z,33.08
2023-02-28T14:53:59.774Z,32.95
2023-02-28T14:56:32.028Z,33.38
2023-02-28T14:58:59.773Z,33.62
2023-02-28T15:01:28.693Z,33.44
2023-02-28T15:04:02.375Z,33.28
2023-02-28T15:06:30.768Z,32.80
2023-02-28T15:09:17.306Z,32.86
2023-02-28T15:11:49.222Z,33.35
2023-02-28T15:14:22.337Z,33.18
2023-02-28T15:16:55.152Z,33.94
2023-02-28T15:19:26.728Z,34.19
2023-02-28T15:22:00.920Z,34.00
2023-02-28T15:24:37.253Z,34.01
2023-02-28T15:27:08.582Z,34.13
2023-02-28T15:29:46.947Z,33.79
2023-02-28T15:32:26.668Z,34.57
2023-02-28T15:34:56.179Z,34.53
2023-02-28T15:37:41.307Z,34.70
2023-02-28T15:40:19.761Z,34.54
2023-02-28T15:43:16.399Z,34.99
2023-02-28T15:45:49.267Z,34.89
2023-02-28T15:48:21.557Z,34.85
2023-02-28T15:50:52.367Z,35.10
2023-02-28T15:53:23.542Z,35.36
2023-02-28T15:55:59.734Z,35.27
2023-02-28T15:58:27.914Z,35.06
2023-02-28T16:01:21.162Z,35.44
2023-02-28T16:03:50.786Z,36.01
2023-02-28T16:06:31.285Z,35.58
2023-02-28T16:08:59.004Z,35.59
2023-02-28T16:11:28.740Z,35.92
2023-02-28T16:13:56.776Z,35.74
2023-02-28T16:16:26.733Z,35.85
2023-02-28T16:18:54.876Z,36.15
2023-02-28T16:21:23.575Z,36.05
2023-02-28T16:23:51.648Z,36.18
2023-02-28T16:26:24.920Z,36.24
2023-02-28T16:28:54.223Z,35.87
2023-02-28T16:31:22.002Z,36.11
2023-02-28T16:33:50.202Z,36.23
2023-02-28T16:36:19.701Z,36.68
2023-02-28T16:38:47.449Z,36.74
2023-02-28T16:41:19.944Z,36.69
2023-02-28T16:43:53.017Z,36.74
2023-02-28T16:46:23.092Z,36.81
2023-02-28T16:48:52.342Z,36.69
2023-02-28T16:51:20.591Z,36.97
2023-02-28T16:53:48.912Z,36.91
2023-02-28T16:56:19.329Z,37.53
2023-02-28T16:58:47.653Z,37.76
2023-02-28T17:01:15.471Z,37.47
2023-02-28T17:03:44.855Z,37.14
2023-02-28T17:06:21.675Z,37.76
2023-02-28T17:08:49.582Z,37.63
2023-02-28T17:11:17.507Z,37.65
2023-02-28T17:13:45.220Z,37.52
2023-02-28T17:16:22.658Z,37.67
2023-02-28T17:18:52.221Z,37.59
2023-02-28T17:21:19.986Z,38.50
2023-02-28T17:23:47.809Z,37.68
2023-02-28T17:26:18.490Z,37.45
2023-02-28T17:28:46.161Z,37.60
2023-02-28T17:31:14.077Z,37.37
2023-02-28T17:33:41.921Z,37.66
2023-02-28T17:36:16.136Z,37.68
2023-02-28T17:38:44.198Z,38.14
2023-02-28T17:41:12.810Z,38.27
2023-02-28T17:43:40.659Z,38.77
2023-02-28T17:46:16.403Z,38.33
2023-02-28T17:48:44.151Z,38.45
2023-02-28T17:51:14.688Z,38.68
2023-02-28T17:53:43.031Z,39.05
2023-02-28T17:56:14.348Z,38.99
2023-02-28T17:58:42.183Z,38.60
2023-02-28T18:01:10.380Z,39.09
2023-02-28T18:03:38.136Z,38.83
2023-02-28T18:06:06.664Z,38.26
2023-02-28T18:08:37.298Z,38.54
2023-02-28T18:11:05.131Z,38.77
2023-02-28T18:13:32.796Z,38.59
2023-02-28T18:16:00.901Z,38.60
2023-02-28T18:18:28.672Z,38.88
2023-02-28T18:20:56.512Z,38.74
2023-02-28T18:23:24.361Z,38.89
2023-02-28T18:25:54.015Z,39.26
2023-02-28T18:28:21.660Z,39.19
2023-02-28T18:30:49.543Z,39.20
2023-02-28T18:33:17.293Z,38.85
2023-02-28T18:35:44.995Z,38.94
2023-02-28T18:38:15.048Z,39.17
2023-02-28T18:40:43.961Z,39.32
2023-02-28T18:43:13.659Z,39.68
2023-02-28T18:45:41.749Z,40.06
2023-02-28T18:48:09.502Z,40.16
2023-02-28T18:50:39.453Z,40.32
2023-02-28T18:53:07.284Z,40.14
2023-02-28T18:55:35.383Z,40.26
2023-02-28T18:58:03.108Z,40.51
2023-02-28T19:00:32.521Z,40.58
2023-02-28T19:03:00.235Z,40.84
2023-02-28T19:05:31.005Z,40.63
2023-02-28T19:07:58.886Z,41.16
2023-02-28T19:10:26.643Z,40.99
2023-02-28T19:12:55.632Z,41.00
2023-02-28T19:15:23.710Z,41.01
2023-02-28T19:17:52.793Z,41.43
2023-02-28T19:20:20.665Z,41.61
2023-02-28T19:22:48.414Z,41.92
2023-02-28T19:25:16.129Z,42.21
2023-02-28T19:27:43.872Z,42.18
2023-02-28T19:30:12.843Z,41.88
2023-02-28T19:32:40.560Z,42.09
2023-02-28T19:35:10.233Z,41.92
2023-02-28T19:37:39.922Z,42.05
2023-02-28T19:40:09.758Z,41.85
2023-02-28T19:42:37.789Z,42.21
2023-02-28T19:45:06.929Z,42.00
2023-02-28T19:47:34.664Z,42.12
2023-02-28T19:50:02.440Z,42.28
2023-02-28T19:52:31.619Z,42.05
2023-02-28T19:54:59.279Z,42.30
2023-02-28T19:57:26.974Z,42.65
2023-02-28T19:59:54.873Z,42.57
2023-02-28T20:02:23.142Z,42.66
2023-02-28T20:04:51.894Z,42.64
2023-02-28T20:07:21.208Z,42.75
2023-02-28T20:09:50.438Z,42.73
2023-02-28T20:12:24.829Z,42.56
2023-02-28T20:14:55.863Z,42.89
2023-02-28T20:17:24.074Z,42.93
2023-02-28T20:19:51.911Z,43.08
2023-02-28T20:22:19.602Z,43.14
2023-02-28T20:24:48.342Z,43.00
2023-02-28T20:27:17.392Z,43.06
2023-02-28T20:29:45.198Z,42.87
2023-02-28T20:32:13.970Z,42.71
2023-02-28T20:34:41.935Z,42.77
2023-02-28T20:37:09.705Z,43.06
2023-02-28T20:39:37.395Z,43.02
2023-02-28T20:42:05.464Z,43.20
2023-02-28T20:44:34.467Z,43.20
2023-02-28T20:47:02.159Z,43.46
2023-02-28T20:49:30.175Z,43.50
2023-02-28T20:51:57.972Z,43.95
2023-02-28T20:54:25.689Z,43.76
2023-02-28T20:56:53.796Z,43.98
2023-02-28T20:59:22.281Z,44.21
2023-02-28T21:01:52.072Z,43.77
2023-02-28T21:04:19.789Z,43.74
2023-02-28T21:06:47.615Z,43.87
2023-02-28T21:09:16.791Z,43.60
2023-02-28T21:11:45.896Z,43.75
2023-02-28T21:14:16.373Z,43.89
2023-02-28T21:16:45.353Z,43.89
2023-02-28T21:19:14.401Z,44.06
2023-02-28T21:21:44.068Z,44.05
2023-02-28T21:24:12.646Z,44.21
2023-02-28T21:26:41.927Z,44.19
2023-02-28T21:29:09.824Z,44.37
2023-02-28T21:31:38.800Z,44.23
2023-02-28T21:34:08.368Z,44.16
2023-02-28T21:36:39.847Z,44.69
2023-02-28T21:39:09.969Z,44.76
2023-02-28T21:41:38.110Z,44.66
2023-02-28T21:44:05.966Z,44.86
2023-02-28T21:46:34.069Z,44.87
2023-02-28T21:49:01.888Z,45.06
2023-02-28T21:51:32.006Z,45.18
2023-02-28T21:54:01.702Z,45.32
2023-02-28T21:56:31.353Z,45.55
2023-02-28T21:59:01.254Z,45.41
2023-02-28T22:01:31.189Z,45.59
2023-02-28T22:04:00.294Z,45.60
2023-02-28T22:06:30.687Z,45.79
2023-02-28T22:09:02.867Z,45.93
2023-02-28T22:11:30.612Z,46.06
2023-02-28T22:13:59.374Z,46.04
2023-02-28T22:16:33.211Z,46.22
2023-02-28T22:19:06.339Z,46.21
2023-02-28T22:21:34.534Z,45.96
2023-02-28T22:24:03.776Z,46.08
2023-02-28T22:26:32.361Z,46.25
2023-02-28T22:29:00.313Z,46.34
2023-02-28T22:31:30.064Z,46.41
2023-02-28T22:33:59.906Z,46.41
2023-02-28T22:36:28.639Z,46.57
2023-02-28T22:38:58.127Z,46.79
2023-02-28T22:41:27.700Z,46.64
2023-02-28T22:43:56.880Z,46.55
2023-02-28T22:46:26.074Z,46.62
2023-02-28T22:48:53.873Z,46.74
2023-02-28T22:51:23.974Z,46.91
2023-02-28T22:53:53.414Z,46.78
2023-02-28T22:56:23.743Z,46.92
2023-02-28T22:58:54.230Z,46.92
2023-02-28T23:01:24.291Z,47.12
2023-02-28T23:03:52.734Z,47.25
2023-02-28T23:06:23.181Z,47.18
2023-02-28T23:08:51.875Z,47.11
2023-02-28T23:11:21.717Z,47.23
2023-02-28T23:13:59.432Z,47.58
2023-02-28T23:16:31.169Z,47.80
2023-02-28T23:19:01.790Z,47.85
2023-02-28T23:21:30.203Z,48.04
2023-02-28T23:23:57.897Z,47.92
2023-02-28T23:26:25.745Z,47.98
2023-02-28T23:28:53.473Z,48.04
2023-02-28T23:31:22.921Z,48.25
2023-02-28T23:33:52.114Z,48.17
2023-02-28T23:36:20.036Z,48.38
2023-02-28T23:38:50.290Z,48.53
2023-02-28T23:41:19.902Z,48.42
2023-02-28T23:43:48.204Z,48.45
2023-02-28T23:46:16.900Z,48.37
2023-02-28T23:48:44.673Z,48.45
2023-02-28T23:51:16.723Z,48.29
2023-02-28T23:53:48.634Z,48.37
2023-02-28T23:56:18.349Z,48.46
2023-02-28T23:58:46.936Z,48.56
